Terminal Aerodrome Forecast
Issued by NWS

Current Version | Previous Version | Graphics & Text | Print | Product List | Glossary On
Versions: 1 2 3 4 5 6 7 8 9 10 11 12 13 14 15
000
FTUS41 KPBZ 272320
TAFMGW
TAF
KMGW 272320Z 2800/2824 20007KT P6SM SCT045
     FM280900 19005KT P6SM VCSH BKN040
     FM281200 26004KT P6SM BKN025
     FM281500 32006KT P6SM BKN030=

USA.gov is the U.S. government's official web portal to all federal, state and local government web resources and services.